createdAt,value
2023-03-16T00:00:10.765Z,0
2023-03-16T01:00:06.076Z,-0.5
2023-03-16T01:30:28.793Z,-1.1
2023-03-16T02:00:30.706Z,-1
2023-03-16T02:30:21.013Z,-1.2
2023-03-16T03:00:06.037Z,-1.2
2023-03-16T03:30:29.340Z,-1
2023-03-16T04:00:29.102Z,-1.3
2023-03-16T04:30:30.182Z,-1.6
2023-03-16T05:00:14.797Z,-1.6
2023-03-16T05:30:16.993Z,-2.1
2023-03-16T06:00:17.085Z,-1.6
2023-03-16T06:30:09.620Z,-1.3
2023-03-16T07:00:24.234Z,-0.7
2023-03-16T07:30:26.063Z,0.3
2023-03-16T08:00:24.955Z,1.1
2023-03-16T08:30:03.109Z,2.9
2023-03-16T09:00:18.379Z,5
2023-03-16T09:30:19.218Z,6.2
2023-03-16T10:00:20.702Z,7.3
2023-03-16T10:30:21.328Z,8.4
2023-03-16T11:00:27.671Z,9.7
2023-03-16T11:30:14.285Z,10.7
2023-03-16T12:00:13.677Z,13.2
2023-03-16T12:30:30.394Z,16.3
2023-03-16T13:00:29.813Z,17.8
2023-03-16T13:30:15.866Z,19.8
2023-03-16T14:00:07.396Z,20.3
2023-03-16T15:00:18.833Z,18
2023-03-16T15:30:03.765Z,15.1
2023-03-16T16:00:26.900Z,14.1
2023-03-16T16:30:11.490Z,13
2023-03-16T17:00:03.517Z,11.7
2023-03-16T17:30:19.041Z,10.2
2023-03-16T18:00:03.869Z,8.9
2023-03-16T18:30:20.248Z,7.4
2023-03-16T19:00:11.795Z,7
2023-03-16T19:30:07.425Z,6.4
2023-03-16T20:00:22.874Z,5.8
2023-03-16T20:30:08.555Z,5.5
2023-03-16T21:00:00.193Z,5.5
2023-03-16T21:30:15.336Z,6
2023-03-16T22:00:01.594Z,5.4
2023-03-16T22:30:23.842Z,5.5
2023-03-16T23:00:15.873Z,4.9
2023-03-16T23:30:01.772Z,4.6
